createdAt,value
2022-08-17T00:02:26.747Z,10.77
2022-08-17T00:04:55.032Z,11.67
2022-08-17T00:07:22.055Z,11.87
2022-08-17T00:09:48.723Z,12.03
2022-08-17T00:12:41.741Z,10.63
2022-08-17T00:15:05.081Z,11.77
2022-08-17T00:17:32.447Z,11.60
2022-08-17T00:20:00.247Z,11.77
2022-08-17T00:22:34.789Z,12.57
2022-08-17T00:25:09.407Z,12.67
2022-08-17T00:27:36.899Z,11.33
2022-08-17T00:30:06.101Z,11.30
2022-08-17T00:33:15.409Z,12.23
2022-08-17T00:35:29.420Z,12.03
2022-08-17T00:37:56.144Z,13.67
2022-08-17T00:40:24.733Z,12.80
2022-08-17T00:42:52.489Z,13.83
2022-08-17T00:45:20.307Z,14.83
2022-08-17T00:47:47.597Z,12.60
2022-08-17T00:50:16.728Z,12.30
2022-08-17T00:52:52.426Z,11.73
2022-08-17T00:55:20.040Z,12.73
2022-08-17T00:57:54.638Z,11.80
2022-08-17T01:00:28.612Z,12.13
2022-08-17T01:02:59.989Z,12.67
2022-08-17T01:05:29.897Z,12.97
2022-08-17T01:07:58.730Z,12.70
2022-08-17T01:11:00.629Z,13.20
2022-08-17T01:13:21.554Z,12.80
2022-08-17T01:16:06.594Z,12.83
2022-08-17T01:18:34.160Z,13.17
2022-08-17T01:21:09.064Z,13.20
2022-08-17T01:23:36.748Z,13.17
2022-08-17T01:26:06.251Z,12.93
2022-08-17T01:28:52.688Z,13.10
2022-08-17T01:31:24.109Z,13.90
2022-08-17T01:33:50.901Z,13.97
2022-08-17T01:36:18.043Z,13.30
2022-08-17T01:38:44.696Z,13.83
2022-08-17T01:41:15.353Z,13.23
2022-08-17T01:43:48.936Z,13.80
2022-08-17T01:46:23.625Z,13.27
2022-08-17T01:48:51.341Z,14.27
2022-08-17T01:51:18.369Z,13.53
2022-08-17T01:53:49.440Z,15.00
2022-08-17T01:56:20.126Z,13.60
2022-08-17T01:58:47.152Z,14.30
2022-08-17T02:01:18.653Z,12.77
2022-08-17T02:03:53.210Z,14.00
2022-08-17T02:06:28.343Z,13.43
2022-08-17T02:09:01.745Z,14.80
2022-08-17T02:11:32.309Z,13.50
2022-08-17T02:14:03.100Z,13.83
2022-08-17T02:16:37.070Z,15.07
2022-08-17T02:19:07.860Z,15.00
2022-08-17T02:21:35.904Z,14.43
2022-08-17T02:24:04.797Z,16.07
2022-08-17T02:26:31.582Z,15.03
2022-08-17T02:28:58.235Z,15.27
2022-08-17T02:31:24.893Z,15.47
2022-08-17T02:34:00.468Z,14.57
2022-08-17T02:36:31.944Z,14.47
2022-08-17T02:39:01.307Z,15.20
2022-08-17T02:41:27.965Z,15.53
2022-08-17T02:43:54.648Z,14.23
2022-08-17T02:46:21.350Z,14.43
2022-08-17T02:48:48.383Z,14.43
2022-08-17T02:51:15.638Z,13.83
2022-08-17T02:53:42.326Z,13.43
2022-08-17T02:56:08.948Z,14.13
2022-08-17T02:58:36.228Z,14.90
2022-08-17T03:01:05.644Z,15.60
2022-08-17T03:03:32.611Z,16.37
2022-08-17T03:05:59.297Z,16.90
2022-08-17T03:08:26.183Z,16.43
2022-08-17T03:10:53.038Z,16.10
2022-08-17T03:13:19.996Z,16.30
2022-08-17T03:15:47.892Z,15.83
2022-08-17T03:18:19.326Z,15.90
2022-08-17T03:20:58.314Z,14.73
2022-08-17T03:23:27.339Z,16.67
2022-08-17T03:25:55.069Z,14.40
2022-08-17T03:28:23.388Z,15.97
2022-08-17T03:30:51.152Z,16.10
2022-08-17T03:33:19.380Z,16.10
2022-08-17T03:35:46.697Z,16.53
2022-08-17T03:38:15.050Z,17.27
2022-08-17T03:40:56.411Z,16.17
2022-08-17T03:43:30.922Z,15.80
2022-08-17T03:46:27.984Z,16.13
2022-08-17T03:49:22.269Z,15.67
2022-08-17T03:52:07.541Z,15.10
2022-08-17T03:54:53.103Z,15.97
2022-08-17T03:57:19.797Z,16.03
2022-08-17T03:59:46.618Z,16.53
2022-08-17T04:02:28.213Z,17.27
2022-08-17T04:04:54.927Z,17.77
2022-08-17T04:07:24.599Z,17.57
2022-08-17T04:09:51.556Z,17.03
2022-08-17T04:12:20.097Z,19.73
2022-08-17T04:14:52.076Z,18.90
2022-08-17T04:17:26.781Z,19.33
2022-08-17T04:19:54.318Z,18.37
2022-08-17T04:22:30.310Z,17.80
2022-08-17T04:25:18.103Z,18.23
2022-08-17T04:27:44.758Z,19.17
2022-08-17T04:30:12.832Z,19.07
2022-08-17T04:33:06.195Z,18.17
2022-08-17T04:35:39.434Z,18.10
2022-08-17T04:38:08.083Z,18.83
2022-08-17T04:40:53.703Z,17.67
2022-08-17T04:43:23.058Z,16.93
2022-08-17T04:45:55.527Z,17.80
2022-08-17T04:48:27.846Z,18.10
2022-08-17T04:51:06.303Z,17.33
2022-08-17T04:53:33.113Z,18.13
2022-08-17T04:55:59.741Z,17.63
2022-08-17T04:58:26.531Z,17.70
2022-08-17T05:00:53.235Z,17.67
2022-08-17T05:03:19.895Z,16.97
2022-08-17T05:05:49.708Z,17.40
2022-08-17T05:08:18.894Z,15.83
2022-08-17T05:10:46.887Z,17.50
2022-08-17T05:13:17.522Z,17.77
2022-08-17T05:15:47.779Z,19.27
2022-08-17T05:18:15.474Z,18.03
2022-08-17T05:20:42.943Z,18.87
2022-08-17T05:23:13.187Z,19.17
2022-08-17T05:25:46.772Z,20.33
2022-08-17T05:28:16.218Z,19.33
2022-08-17T05:30:44.544Z,19.93
2022-08-17T05:33:28.284Z,19.23
2022-08-17T05:35:57.443Z,18.60
2022-08-17T05:38:26.440Z,19.53
2022-08-17T05:40:54.392Z,19.77
2022-08-17T05:43:24.340Z,18.63
2022-08-17T05:46:32.760Z,18.63
2022-08-17T05:49:04.273Z,18.80
2022-08-17T05:51:37.100Z,20.43
2022-08-17T05:54:31.676Z,22.07
2022-08-17T05:57:06.381Z,20.23
2022-08-17T05:59:50.642Z,18.93
2022-08-17T06:02:47.986Z,20.13
2022-08-17T06:05:47.783Z,13.97
2022-08-17T06:08:37.062Z,18.97
2022-08-17T06:11:32.787Z,18.90
2022-08-17T06:14:02.033Z,17.50
2022-08-17T06:16:35.433Z,20.13
2022-08-17T06:19:45.675Z,18.30
2022-08-17T06:22:16.647Z,19.33
2022-08-17T06:24:53.068Z,19.70
2022-08-17T06:27:25.093Z,16.97
2022-08-17T06:30:11.350Z,17.30
2022-08-17T06:32:40.639Z,20.60
2022-08-17T06:35:09.175Z,17.73
2022-08-17T06:38:08.478Z,17.93
2022-08-17T06:40:45.425Z,19.07
2022-08-17T06:43:27.780Z,18.03
2022-08-17T06:46:07.396Z,17.83
2022-08-17T06:48:42.563Z,15.70
2022-08-17T06:51:43.218Z,18.13
2022-08-17T06:54:23.871Z,15.77
2022-08-17T06:57:14.812Z,15.10
2022-08-17T06:59:59.265Z,15.53
2022-08-17T07:02:51.178Z,15.57
2022-08-17T07:05:23.518Z,14.53
2022-08-17T07:08:27.721Z,15.87
2022-08-17T07:11:02.900Z,15.83
2022-08-17T07:13:59.875Z,15.83
2022-08-17T07:16:32.937Z,5.83
2022-08-17T07:19:00.098Z,7.97
2022-08-17T07:21:51.635Z,9.77
2022-08-17T07:24:29.189Z,6.30
2022-08-17T07:27:13.895Z,13.03
2022-08-17T07:29:51.640Z,6.70
2022-08-17T07:32:23.177Z,5.77
2022-08-17T07:35:20.965Z,10.00
2022-08-17T07:37:54.010Z,10.23
2022-08-17T07:40:31.173Z,6.00
2022-08-17T07:43:08.266Z,5.20
2022-08-17T07:46:23.151Z,5.80
2022-08-17T07:48:54.125Z,5.27
2022-08-17T07:51:29.883Z,5.80
2022-08-17T07:54:13.570Z,5.53
2022-08-17T07:56:52.544Z,5.37
2022-08-17T07:59:33.809Z,10.87
2022-08-17T08:02:02.275Z,8.63
2022-08-17T08:07:31.682Z,9.57
2022-08-17T08:10:24.902Z,6.00
2022-08-17T08:13:07.244Z,6.13
2022-08-17T08:15:53.776Z,6.10
2022-08-17T08:18:54.347Z,9.50
2022-08-17T08:21:52.137Z,5.87
2022-08-17T08:24:37.117Z,8.03
2022-08-17T08:27:21.494Z,6.00
2022-08-17T08:29:48.088Z,5.90
2022-08-17T08:32:37.639Z,5.73
2022-08-17T08:35:26.668Z,5.67
2022-08-17T08:38:38.962Z,5.17
2022-08-17T08:41:45.664Z,6.60
2022-08-17T08:45:00.415Z,7.90
2022-08-17T08:48:05.981Z,6.77
2022-08-17T08:51:08.638Z,9.47
2022-08-17T08:53:52.414Z,9.70
2022-08-17T08:56:37.180Z,5.63
2022-08-17T08:59:22.068Z,5.33
2022-08-17T09:02:29.340Z,8.83
2022-08-17T09:05:37.844Z,5.63
2022-08-17T09:08:25.473Z,5.07
2022-08-17T09:11:17.277Z,5.67
2022-08-17T09:14:20.988Z,5.50
2022-08-17T09:17:03.327Z,7.77
2022-08-17T09:19:30.469Z,5.67
2022-08-17T09:22:21.287Z,5.27
2022-08-17T09:25:00.771Z,4.90
2022-08-17T09:27:51.864Z,5.17
2022-08-17T09:30:20.215Z,8.03
2022-08-17T09:32:58.759Z,5.23
2022-08-17T09:35:36.919Z,5.90
2022-08-17T09:38:21.182Z,5.37
2022-08-17T09:41:16.412Z,5.60
2022-08-17T09:44:06.940Z,5.50
2022-08-17T09:46:40.621Z,5.30
2022-08-17T09:49:29.415Z,5.07
2022-08-17T09:52:05.526Z,5.30
2022-08-17T09:54:39.596Z,5.40
2022-08-17T09:57:37.879Z,5.40
2022-08-17T10:00:29.676Z,5.90
2022-08-17T10:03:16.347Z,5.40
2022-08-17T10:05:55.014Z,8.03
2022-08-17T10:08:52.373Z,6.87
2022-08-17T10:11:57.876Z,5.40
2022-08-17T10:14:53.263Z,7.13
2022-08-17T10:17:42.892Z,8.27
2022-08-17T10:20:15.899Z,5.27
2022-08-17T10:23:07.398Z,5.80
2022-08-17T10:26:13.610Z,5.30
2022-08-17T10:28:49.972Z,5.40
2022-08-17T10:31:40.512Z,7.30
2022-08-17T10:34:24.901Z,5.43
2022-08-17T10:37:04.230Z,8.37
2022-08-17T10:39:57.312Z,6.07
2022-08-17T10:42:53.134Z,16.43
2022-08-17T10:45:26.158Z,5.47
2022-08-17T10:48:07.161Z,5.87
2022-08-17T10:50:57.596Z,5.93
2022-08-17T10:53:33.589Z,5.90
2022-08-17T10:56:12.677Z,5.30
2022-08-17T10:58:54.853Z,5.40
2022-08-17T11:01:58.204Z,5.90
2022-08-17T11:04:49.529Z,5.87
2022-08-17T11:07:23.700Z,6.33
2022-08-17T11:10:38.648Z,7.80
2022-08-17T11:13:31.125Z,6.20
2022-08-17T11:16:37.678Z,7.17
2022-08-17T11:19:30.739Z,8.40
2022-08-17T11:22:06.370Z,4.97
2022-08-17T11:24:43.371Z,6.50
2022-08-17T11:27:29.722Z,5.27
2022-08-17T11:30:02.216Z,5.30
2022-08-17T11:32:54.495Z,7.67
2022-08-17T11:35:21.437Z,5.50
2022-08-17T11:38:03.050Z,5.10
2022-08-17T11:40:59.639Z,5.13
2022-08-17T11:43:58.991Z,4.77
2022-08-17T11:47:18.504Z,6.00
2022-08-17T11:50:27.719Z,8.50
2022-08-17T11:52:55.000Z,6.67
2022-08-17T11:55:37.475Z,11.10
2022-08-17T11:58:25.707Z,7.97
2022-08-17T12:01:08.361Z,7.40
2022-08-17T12:03:34.962Z,7.93
2022-08-17T12:06:41.958Z,5.60
2022-08-17T12:09:26.212Z,5.30
2022-08-17T12:12:12.031Z,9.33
2022-08-17T12:15:09.044Z,5.30
2022-08-17T12:17:40.636Z,5.20
2022-08-17T12:20:19.618Z,5.37
2022-08-17T12:23:04.356Z,5.17
2022-08-17T12:25:41.406Z,5.67
2022-08-17T12:28:30.287Z,6.90
2022-08-17T12:31:03.405Z,5.50
2022-08-17T12:33:30.395Z,7.60
2022-08-17T12:36:03.615Z,6.67
2022-08-17T12:38:36.753Z,7.10
2022-08-17T12:41:27.004Z,5.90
2022-08-17T12:44:03.929Z,6.20
2022-08-17T12:46:46.909Z,5.57
2022-08-17T12:49:26.412Z,6.10
2022-08-17T12:52:05.626Z,6.70
2022-08-17T12:54:49.918Z,5.77
2022-08-17T12:57:39.497Z,8.80
2022-08-17T13:00:15.665Z,7.90
2022-08-17T13:02:48.245Z,6.20
2022-08-17T13:05:27.658Z,5.80
2022-08-17T13:07:57.650Z,7.13
2022-08-17T13:10:33.488Z,6.50
2022-08-17T13:13:17.520Z,7.07
2022-08-17T13:15:54.231Z,8.00
2022-08-17T13:18:41.339Z,7.90
2022-08-17T13:21:21.996Z,6.80
2022-08-17T13:24:02.355Z,7.67
2022-08-17T13:26:36.740Z,7.07
2022-08-17T13:29:20.701Z,6.10
2022-08-17T13:31:52.920Z,7.77
2022-08-17T13:34:29.095Z,7.00
2022-08-17T13:37:27.108Z,5.93
2022-08-17T13:40:07.484Z,6.57
2022-08-17T13:42:53.080Z,6.87
2022-08-17T13:45:36.886Z,6.57
2022-08-17T13:48:08.784Z,6.97
2022-08-17T13:50:49.123Z,8.00
2022-08-17T13:53:27.791Z,7.47
2022-08-17T13:55:58.794Z,7.67
2022-08-17T13:58:32.660Z,6.03
2022-08-17T14:01:29.778Z,7.13
2022-08-17T14:03:58.616Z,5.87
2022-08-17T14:06:51.896Z,6.67
2022-08-17T14:09:17.531Z,6.50
2022-08-17T14:11:49.075Z,6.43
2022-08-17T14:14:16.590Z,6.47
2022-08-17T14:16:43.615Z,6.93
2022-08-17T14:19:14.844Z,9.87
2022-08-17T14:21:44.357Z,6.73
2022-08-17T14:24:24.089Z,6.77
2022-08-17T14:26:54.641Z,7.33
2022-08-17T14:29:25.575Z,6.27
2022-08-17T14:31:54.092Z,6.03
2022-08-17T14:34:22.574Z,6.10
2022-08-17T14:36:57.051Z,7.63
2022-08-17T14:39:32.634Z,7.70
2022-08-17T14:42:03.311Z,5.97
2022-08-17T14:44:30.142Z,6.30
2022-08-17T14:46:56.783Z,6.60
2022-08-17T14:49:27.795Z,6.40
2022-08-17T14:51:58.719Z,6.23
2022-08-17T14:54:33.228Z,6.97
2022-08-17T14:57:24.638Z,6.60
2022-08-17T14:59:55.551Z,6.63
2022-08-17T15:02:30.189Z,6.53
2022-08-17T15:05:03.417Z,6.27
2022-08-17T15:07:30.833Z,7.00
2022-08-17T15:10:02.539Z,6.17
2022-08-17T15:12:34.711Z,6.50
2022-08-17T15:15:06.174Z,5.93
2022-08-17T15:17:45.080Z,6.80
2022-08-17T15:20:25.029Z,6.03
2022-08-17T15:22:55.684Z,6.73
2022-08-17T15:25:25.347Z,7.70
2022-08-17T15:27:52.693Z,6.27
2022-08-17T15:30:20.331Z,7.97
2022-08-17T15:32:54.701Z,5.53
2022-08-17T15:35:28.992Z,5.83
2022-08-17T15:37:58.267Z,6.20
2022-08-17T15:40:25.260Z,6.53
2022-08-17T15:42:52.262Z,6.43
2022-08-17T15:45:24.495Z,5.97
2022-08-17T15:47:52.475Z,5.97
2022-08-17T15:50:27.103Z,5.90
2022-08-17T15:53:02.302Z,5.97
2022-08-17T15:55:31.192Z,5.57
2022-08-17T15:57:58.603Z,7.30
2022-08-17T16:00:28.242Z,7.43
2022-08-17T16:03:44.371Z,6.40
2022-08-17T16:05:46.242Z,7.33
2022-08-17T16:08:18.460Z,6.40
2022-08-17T16:10:49.414Z,7.63
2022-08-17T16:13:18.181Z,6.27
2022-08-17T16:15:56.617Z,6.27
2022-08-17T16:18:30.684Z,8.23
2022-08-17T16:21:19.484Z,6.20
2022-08-17T16:23:48.094Z,6.60
2022-08-17T16:26:22.963Z,6.30
2022-08-17T16:28:51.265Z,6.90
2022-08-17T16:31:17.997Z,6.50
2022-08-17T16:34:16.183Z,6.07
2022-08-17T16:36:37.564Z,6.33
2022-08-17T16:39:04.713Z,6.70
2022-08-17T16:41:45.246Z,6.60
2022-08-17T16:44:18.136Z,6.40
2022-08-17T16:46:47.095Z,6.13
2022-08-17T16:49:35.749Z,6.60
2022-08-17T16:52:04.871Z,5.90
2022-08-17T16:54:32.006Z,6.20
2022-08-17T16:56:59.116Z,6.57
2022-08-17T16:59:30.855Z,6.37
2022-08-17T17:02:04.767Z,6.20
2022-08-17T17:04:35.294Z,6.17
2022-08-17T17:07:38.678Z,6.50
2022-08-17T17:10:09.686Z,6.40
2022-08-17T17:13:02.119Z,6.27
2022-08-17T17:15:31.596Z,6.50
2022-08-17T17:18:06.936Z,6.57
2022-08-17T17:20:47.945Z,6.47
2022-08-17T17:23:33.908Z,6.13
2022-08-17T17:26:31.069Z,5.93
2022-08-17T17:29:26.627Z,6.53
2022-08-17T17:32:20.671Z,6.40
2022-08-17T17:34:56.001Z,6.47
2022-08-17T17:37:29.438Z,6.50
2022-08-17T17:39:59.693Z,6.00
2022-08-17T17:42:31.322Z,6.53
2022-08-17T17:45:23.825Z,5.90
2022-08-17T17:47:50.813Z,6.80
2022-08-17T17:50:37.614Z,6.17
2022-08-17T17:53:07.499Z,6.30
2022-08-17T17:56:01.070Z,6.03
2022-08-17T17:58:38.574Z,5.67
2022-08-17T18:01:31.506Z,6.60
2022-08-17T18:04:21.254Z,6.43
2022-08-17T18:07:22.832Z,6.67
2022-08-17T18:10:01.117Z,5.70
2022-08-17T18:12:44.693Z,6.93
2022-08-17T18:15:31.300Z,5.53
2022-08-17T18:18:02.437Z,6.60
2022-08-17T18:20:36.465Z,8.10
2022-08-17T18:23:16.303Z,7.00
2022-08-17T18:25:52.155Z,6.67
2022-08-17T18:28:30.241Z,14.50
2022-08-17T18:31:20.299Z,9.90
2022-08-17T18:33:55.474Z,5.90
2022-08-17T18:36:36.468Z,9.27
2022-08-17T18:39:44.816Z,33.23
2022-08-17T18:42:26.801Z,38.43
2022-08-17T18:44:55.419Z,24.17
2022-08-17T18:47:27.961Z,10.83
2022-08-17T18:50:15.130Z,10.53
2022-08-17T18:52:41.947Z,9.97
2022-08-17T18:55:22.451Z,6.03
2022-08-17T18:57:57.515Z,7.37
2022-08-17T19:00:44.488Z,6.40
2022-08-17T19:03:20.151Z,5.73
2022-08-17T19:05:54.926Z,6.57
2022-08-17T19:08:34.622Z,6.13
2022-08-17T19:11:26.867Z,6.23
2022-08-17T19:13:57.227Z,5.70
2022-08-17T19:16:44.975Z,5.83
2022-08-17T19:19:19.529Z,6.47
2022-08-17T19:22:28.886Z,6.33
2022-08-17T19:25:10.390Z,6.03
2022-08-17T19:27:46.480Z,6.17
2022-08-17T19:30:17.433Z,5.57
2022-08-17T19:32:44.465Z,5.30
2022-08-17T19:35:17.310Z,5.97
2022-08-17T19:38:23.845Z,6.23
2022-08-17T19:41:13.068Z,6.07
2022-08-17T19:43:55.022Z,6.13
2022-08-17T19:46:39.334Z,6.10
2022-08-17T19:49:41.213Z,5.60
2022-08-17T19:52:32.460Z,6.33
2022-08-17T19:55:15.787Z,5.80
2022-08-17T19:58:01.042Z,6.10
2022-08-17T20:00:31.179Z,5.40
2022-08-17T20:03:16.805Z,5.83
2022-08-17T20:06:14.499Z,5.90
2022-08-17T20:08:51.870Z,5.70
2022-08-17T20:11:30.180Z,5.77
2022-08-17T20:14:14.383Z,5.80
2022-08-17T20:16:41.798Z,5.23
2022-08-17T20:19:24.058Z,5.67
2022-08-17T20:21:56.465Z,5.67
2022-08-17T20:24:23.074Z,5.87
2022-08-17T20:26:58.655Z,5.57
2022-08-17T20:30:00.690Z,5.77
2022-08-17T20:32:30.899Z,5.27
2022-08-17T20:35:09.572Z,6.13
2022-08-17T20:37:43.101Z,5.80
2022-08-17T20:40:09.822Z,5.53
2022-08-17T20:42:36.932Z,5.47
2022-08-17T20:45:22.097Z,6.13
2022-08-17T20:48:18.473Z,5.30
2022-08-17T20:50:46.139Z,5.80
2022-08-17T20:53:47.697Z,6.77
2022-08-17T20:56:43.031Z,5.40
2022-08-17T20:59:28.500Z,5.63
2022-08-17T21:02:17.529Z,5.73
2022-08-17T21:04:52.854Z,5.70
2022-08-17T21:07:57.997Z,5.63
2022-08-17T21:10:24.860Z,5.57
2022-08-17T21:13:08.107Z,5.70
2022-08-17T21:16:06.293Z,5.07
2022-08-17T21:18:38.534Z,5.70
2022-08-17T21:21:35.861Z,9.17
2022-08-17T21:24:15.188Z,5.17
2022-08-17T21:26:55.286Z,5.00
2022-08-17T21:29:31.136Z,5.43
2022-08-17T21:31:59.379Z,5.50
2022-08-17T21:35:17.528Z,5.60
2022-08-17T21:37:47.882Z,5.97
2022-08-17T21:40:17.914Z,5.60
2022-08-17T21:42:52.653Z,4.57
2022-08-17T21:45:37.820Z,5.13
2022-08-17T21:48:24.441Z,5.27
2022-08-17T21:51:03.664Z,5.03
2022-08-17T21:53:58.459Z,4.60
2022-08-17T21:56:29.390Z,5.10
2022-08-17T21:59:06.467Z,5.67
2022-08-17T22:01:40.752Z,4.87
2022-08-17T22:04:11.206Z,5.83
2022-08-17T22:06:39.868Z,6.23
2022-08-17T22:09:26.719Z,5.07
2022-08-17T22:12:16.669Z,4.97
2022-08-17T22:14:53.424Z,5.60
2022-08-17T22:17:29.597Z,6.30
2022-08-17T22:20:01.413Z,5.70
2022-08-17T22:22:59.422Z,6.93
2022-08-17T22:25:27.879Z,5.50
2022-08-17T22:28:01.033Z,5.30
2022-08-17T22:30:30.713Z,5.10
2022-08-17T22:32:58.735Z,6.20
2022-08-17T22:35:28.770Z,4.63
2022-08-17T22:37:56.460Z,4.27
2022-08-17T22:40:32.289Z,4.10
2022-08-17T22:43:02.125Z,4.73
2022-08-17T22:45:30.340Z,4.33
2022-08-17T22:48:00.172Z,4.53
2022-08-17T22:50:31.293Z,4.43
2022-08-17T22:53:20.216Z,4.97
2022-08-17T22:56:13.384Z,5.40
2022-08-17T22:59:15.718Z,4.77
2022-08-17T23:01:45.361Z,4.60
2022-08-17T23:04:35.757Z,4.00
2022-08-17T23:07:02.534Z,4.73
2022-08-17T23:09:29.804Z,3.77
2022-08-17T23:11:59.432Z,5.27
2022-08-17T23:14:31.337Z,4.90
2022-08-17T23:17:01.827Z,3.87
2022-08-17T23:19:31.636Z,5.57
2022-08-17T23:21:59.624Z,3.13
2022-08-17T23:24:28.328Z,4.60
2022-08-17T23:26:57.318Z,3.73
2022-08-17T23:29:25.215Z,4.37
2022-08-17T23:31:52.596Z,3.87
2022-08-17T23:34:19.596Z,3.80
2022-08-17T23:36:50.589Z,3.83
2022-08-17T23:39:27.289Z,3.40
2022-08-17T23:41:58.428Z,3.97
2022-08-17T23:44:26.255Z,4.10
2022-08-17T23:46:53.468Z,3.87
2022-08-17T23:49:20.852Z,3.70
2022-08-17T23:51:48.744Z,3.30
2022-08-17T23:54:27.869Z,3.47
2022-08-17T23:56:54.535Z,3.83
2022-08-17T23:59:22.813Z,4.63
